createdAt,value
2018-11-14T00:00:52.842Z,18.40
2018-11-14T00:01:52.809Z,18.90
2018-11-14T00:02:52.778Z,16.60
2018-11-14T00:03:52.745Z,19.70
2018-11-14T00:04:52.712Z,24.00
2018-11-14T00:05:52.679Z,21.30
2018-11-14T00:06:52.648Z,20.90
2018-11-14T00:07:52.619Z,21.70
2018-11-14T00:08:52.584Z,21.50
2018-11-14T00:09:52.552Z,24.90
2018-11-14T00:10:52.520Z,25.30
2018-11-14T00:11:52.489Z,17.20
2018-11-14T00:12:52.455Z,21.00
2018-11-14T00:13:52.424Z,22.10
2018-11-14T00:14:52.393Z,22.70
2018-11-14T00:15:52.360Z,21.40
2018-11-14T00:16:52.331Z,20.00
2018-11-14T00:17:52.298Z,18.10
2018-11-14T00:18:52.263Z,22.60
2018-11-14T00:19:52.232Z,17.70
2018-11-14T00:20:52.199Z,16.60
2018-11-14T00:21:52.167Z,24.90
2018-11-14T00:22:52.138Z,19.30
2018-11-14T00:23:52.105Z,15.50
2018-11-14T00:24:52.454Z,18.70
2018-11-14T00:25:52.040Z,18.40
2018-11-14T00:26:52.528Z,21.60
2018-11-14T00:27:51.984Z,17.20
2018-11-14T00:28:51.941Z,19.00
2018-11-14T00:29:51.909Z,16.90
2018-11-14T00:30:51.878Z,21.30
2018-11-14T00:31:51.847Z,23.10
2018-11-14T00:32:51.814Z,23.30
2018-11-14T00:33:51.781Z,22.30
2018-11-14T00:34:51.795Z,23.40
2018-11-14T00:35:51.719Z,23.50
2018-11-14T00:36:51.685Z,21.60
2018-11-14T00:37:51.654Z,25.80
2018-11-14T00:38:51.626Z,21.30
2018-11-14T00:39:51.590Z,22.40
2018-11-14T00:40:51.558Z,19.90
2018-11-14T00:41:51.524Z,21.40
2018-11-14T00:42:51.492Z,19.20
2018-11-14T00:43:51.461Z,24.00
2018-11-14T00:44:51.427Z,20.00
2018-11-14T00:45:51.394Z,22.40
2018-11-14T00:46:51.364Z,26.10
2018-11-14T00:47:51.338Z,19.90
2018-11-14T00:48:51.297Z,25.00
2018-11-14T00:49:51.266Z,16.90
2018-11-14T00:50:51.238Z,18.50
2018-11-14T00:51:51.202Z,21.90
2018-11-14T00:52:51.176Z,22.70
2018-11-14T00:53:51.138Z,22.80
2018-11-14T00:54:51.105Z,22.40
2018-11-14T00:55:51.072Z,25.00
2018-11-14T00:56:51.040Z,24.40
2018-11-14T00:57:51.013Z,24.50
2018-11-14T00:58:50.976Z,23.10
2018-11-14T00:59:50.951Z,25.10
2018-11-14T01:00:50.912Z,18.80
2018-11-14T01:01:50.879Z,25.20
2018-11-14T01:02:50.850Z,23.90
2018-11-14T01:03:50.815Z,24.60
2018-11-14T01:04:50.782Z,21.70
2018-11-14T01:05:50.750Z,24.20
2018-11-14T01:06:50.722Z,26.10
2018-11-14T01:07:50.688Z,21.50
2018-11-14T01:08:50.655Z,21.60
2018-11-14T01:09:50.621Z,21.20
2018-11-14T01:10:50.591Z,22.40
2018-11-14T01:11:50.559Z,24.10
2018-11-14T01:12:50.524Z,27.70
2018-11-14T01:13:50.493Z,26.10
2018-11-14T01:14:50.460Z,24.50
2018-11-14T01:15:50.429Z,23.30
2018-11-14T01:16:50.399Z,21.80
2018-11-14T01:17:50.364Z,24.80
2018-11-14T01:18:50.332Z,23.50
2018-11-14T01:19:50.301Z,25.10
2018-11-14T01:20:50.267Z,28.50
2018-11-14T01:21:50.234Z,20.60
2018-11-14T01:22:50.205Z,21.40
2018-11-14T01:23:50.170Z,28.50
2018-11-14T01:24:50.137Z,24.20
2018-11-14T01:25:50.105Z,24.70
2018-11-14T01:26:50.076Z,25.00
2018-11-14T01:27:50.043Z,23.70
2018-11-14T01:28:50.008Z,24.50
2018-11-14T01:29:49.975Z,24.80
2018-11-14T01:30:49.945Z,24.70
2018-11-14T01:31:49.912Z,22.90
2018-11-14T01:32:49.911Z,25.10
2018-11-14T01:33:49.845Z,28.00
2018-11-14T01:34:49.815Z,24.00
2018-11-14T01:35:49.907Z,25.30
2018-11-14T01:36:49.749Z,29.70
2018-11-14T01:37:49.718Z,29.50
2018-11-14T01:38:49.684Z,29.70
2018-11-14T01:39:49.654Z,27.60
2018-11-14T01:40:49.620Z,28.10
2018-11-14T01:41:49.587Z,23.40
2018-11-14T01:42:49.559Z,28.00
2018-11-14T01:43:49.525Z,28.10
2018-11-14T01:44:49.492Z,27.90
2018-11-14T01:45:49.457Z,27.10
2018-11-14T01:46:49.427Z,24.10
2018-11-14T01:47:49.394Z,29.60
2018-11-14T01:48:49.362Z,24.30
2018-11-14T01:49:49.329Z,25.70
2018-11-14T01:50:49.297Z,28.00
2018-11-14T01:51:49.265Z,27.50
2018-11-14T01:52:49.231Z,29.30
2018-11-14T01:53:49.199Z,30.80
2018-11-14T01:54:49.168Z,28.90
2018-11-14T01:55:49.142Z,29.70
2018-11-14T01:56:49.102Z,29.20
2018-11-14T01:57:49.069Z,35.10
2018-11-14T01:58:49.037Z,28.20
2018-11-14T01:59:49.007Z,26.10
2018-11-14T02:00:48.973Z,33.20
2018-11-14T02:01:48.944Z,29.30
2018-11-14T02:02:48.911Z,30.10
2018-11-14T02:03:48.875Z,30.20
2018-11-14T02:04:48.844Z,31.10
2018-11-14T02:05:48.811Z,32.70
2018-11-14T02:06:48.778Z,28.90
2018-11-14T02:07:48.746Z,26.60
2018-11-14T02:08:48.713Z,31.30
2018-11-14T02:09:48.682Z,33.20
2018-11-14T02:10:48.653Z,28.20
2018-11-14T02:11:48.616Z,33.30
2018-11-14T02:12:48.584Z,29.70
2018-11-14T02:13:48.552Z,33.90
2018-11-14T02:14:48.517Z,33.10
2018-11-14T02:15:48.487Z,31.50
2018-11-14T02:16:48.453Z,29.30
2018-11-14T02:17:48.421Z,32.40
2018-11-14T02:18:48.389Z,31.00
2018-11-14T02:19:48.357Z,30.10
2018-11-14T02:20:48.323Z,31.70
2018-11-14T02:21:48.293Z,35.20
2018-11-14T02:22:48.259Z,34.60
2018-11-14T02:23:48.228Z,34.80
2018-11-14T02:24:48.194Z,33.90
2018-11-14T02:25:48.162Z,33.00
2018-11-14T02:26:48.131Z,31.70
2018-11-14T02:27:48.097Z,25.60
2018-11-14T02:28:48.064Z,31.50
2018-11-14T02:29:48.031Z,32.80
2018-11-14T02:30:47.999Z,35.60
2018-11-14T02:31:47.968Z,34.40
2018-11-14T02:32:47.933Z,32.30
2018-11-14T02:33:47.902Z,31.60
2018-11-14T02:34:47.868Z,34.50
2018-11-14T02:35:47.838Z,33.50
2018-11-14T02:36:47.804Z,33.40
2018-11-14T02:37:47.862Z,35.70
2018-11-14T02:38:47.740Z,37.30
2018-11-14T02:39:47.708Z,32.50
2018-11-14T02:40:47.677Z,34.20
2018-11-14T02:41:47.651Z,33.20
2018-11-14T02:42:47.608Z,31.90
2018-11-14T02:43:47.578Z,37.80
2018-11-14T02:44:47.544Z,33.00
2018-11-14T02:45:47.512Z,37.40
2018-11-14T02:46:47.490Z,35.90
2018-11-14T02:47:47.447Z,37.00
2018-11-14T02:48:47.413Z,38.80
2018-11-14T02:49:47.388Z,40.20
2018-11-14T02:50:47.350Z,40.20
2018-11-14T02:51:47.317Z,32.80
2018-11-14T02:52:47.335Z,33.50
2018-11-14T02:53:47.252Z,37.00
2018-11-14T02:54:47.220Z,32.10
2018-11-14T02:55:47.191Z,35.60
2018-11-14T02:56:47.153Z,39.60
2018-11-14T02:57:47.123Z,37.70
2018-11-14T02:58:47.090Z,35.50
2018-11-14T02:59:47.058Z,40.40
2018-11-14T03:00:47.026Z,33.60
2018-11-14T03:01:46.993Z,35.20
2018-11-14T03:02:46.963Z,41.20
2018-11-14T03:03:46.928Z,38.70
2018-11-14T03:04:46.894Z,41.90
2018-11-14T03:05:46.866Z,40.10
2018-11-14T03:06:46.831Z,42.50
2018-11-14T03:07:46.798Z,41.40
2018-11-14T03:08:46.764Z,39.60
2018-11-14T03:09:46.731Z,43.10
2018-11-14T03:10:46.699Z,40.90
2018-11-14T03:11:46.666Z,38.40
2018-11-14T03:12:46.635Z,46.70
2018-11-14T03:13:46.605Z,45.50
2018-11-14T03:14:46.570Z,41.30
2018-11-14T03:15:46.536Z,51.10
2018-11-14T03:16:46.505Z,49.60
2018-11-14T03:17:46.471Z,48.80
2018-11-14T03:18:46.438Z,45.40
2018-11-14T03:19:46.405Z,46.30
2018-11-14T03:20:46.376Z,48.70
2018-11-14T03:21:46.341Z,44.60
2018-11-14T03:22:46.308Z,48.90
2018-11-14T03:23:46.276Z,48.20
2018-11-14T03:24:46.243Z,53.20
2018-11-14T03:25:46.209Z,45.90
2018-11-14T03:26:46.178Z,46.00
2018-11-14T03:27:46.147Z,49.40
2018-11-14T03:28:46.112Z,46.50
2018-11-14T03:29:46.086Z,55.10
2018-11-14T03:30:46.051Z,52.40
2018-11-14T03:31:46.024Z,52.40
2018-11-14T03:32:45.992Z,48.70
2018-11-14T03:33:45.951Z,49.70
2018-11-14T03:34:45.920Z,54.90
2018-11-14T03:35:45.884Z,49.60
2018-11-14T03:36:45.851Z,52.30
2018-11-14T03:37:45.818Z,54.30
2018-11-14T03:38:45.786Z,51.30
2018-11-14T03:39:45.754Z,52.40
2018-11-14T03:40:45.722Z,54.60
2018-11-14T03:41:45.689Z,54.40
2018-11-14T03:42:45.655Z,51.60
2018-11-14T03:43:45.622Z,56.90
2018-11-14T03:44:45.591Z,57.70
2018-11-14T03:45:45.559Z,60.20
2018-11-14T03:46:45.524Z,59.60
2018-11-14T03:47:45.498Z,58.80
2018-11-14T03:48:45.458Z,60.70
2018-11-14T03:49:45.428Z,65.20
2018-11-14T03:50:45.394Z,60.10
2018-11-14T03:51:45.360Z,61.70
2018-11-14T03:52:45.329Z,64.40
2018-11-14T03:53:45.294Z,63.00
2018-11-14T03:54:45.262Z,55.00
2018-11-14T03:55:45.235Z,56.80
2018-11-14T03:56:45.197Z,66.00
2018-11-14T03:57:45.163Z,67.50
2018-11-14T03:58:45.132Z,63.90
2018-11-14T03:59:45.099Z,62.00
2018-11-14T04:00:45.067Z,62.40
2018-11-14T04:01:45.035Z,69.00
2018-11-14T04:02:45.004Z,68.90
2018-11-14T04:03:44.966Z,61.70
2018-11-14T04:04:44.935Z,77.10
2018-11-14T04:05:44.903Z,61.90
2018-11-14T04:06:44.868Z,61.90
2018-11-14T04:07:44.837Z,74.30
2018-11-14T04:08:44.802Z,66.50
2018-11-14T04:09:44.770Z,63.90
2018-11-14T04:10:44.739Z,59.40
2018-11-14T04:11:44.704Z,64.20
2018-11-14T04:12:44.671Z,65.70
2018-11-14T04:13:44.638Z,68.70
2018-11-14T04:14:44.609Z,59.10
2018-11-14T04:15:44.574Z,66.00
2018-11-14T04:16:44.539Z,68.90
2018-11-14T04:17:44.507Z,71.10
2018-11-14T04:18:44.474Z,63.20
2018-11-14T04:19:44.440Z,73.70
2018-11-14T04:20:44.407Z,73.40
2018-11-14T04:21:44.374Z,71.40
2018-11-14T04:22:44.346Z,73.00
2018-11-14T04:23:44.313Z,68.00
2018-11-14T04:24:44.276Z,72.70
2018-11-14T04:25:44.244Z,66.40
2018-11-14T04:26:44.211Z,70.00
2018-11-14T04:27:44.179Z,68.00
2018-11-14T04:28:44.147Z,71.40
2018-11-14T04:29:44.110Z,68.70
2018-11-14T04:30:44.078Z,71.40
2018-11-14T04:31:44.046Z,84.90
2018-11-14T04:32:44.012Z,73.60
2018-11-14T04:33:43.980Z,84.70
2018-11-14T04:34:43.947Z,81.90
2018-11-14T04:35:43.913Z,82.60
2018-11-14T04:36:43.881Z,77.40
2018-11-14T04:37:43.849Z,79.40
2018-11-14T04:38:43.816Z,75.50
2018-11-14T04:39:43.783Z,83.90
2018-11-14T04:40:43.754Z,72.70
2018-11-14T04:41:43.715Z,83.60
2018-11-14T04:42:43.683Z,76.90
2018-11-14T04:43:43.651Z,82.80
2018-11-14T04:44:43.618Z,82.60
2018-11-14T04:45:43.583Z,87.70
2018-11-14T04:46:43.552Z,90.00
2018-11-14T04:47:43.521Z,81.80
2018-11-14T04:48:43.532Z,79.90
2018-11-14T04:49:43.456Z,89.10
2018-11-14T04:50:43.423Z,81.00
2018-11-14T04:51:43.387Z,92.90
2018-11-14T04:52:43.352Z,92.10
2018-11-14T04:53:43.320Z,82.80
2018-11-14T04:54:43.290Z,83.40
2018-11-14T04:55:43.254Z,90.00
2018-11-14T04:56:43.222Z,83.50
2018-11-14T04:57:43.190Z,95.80
2018-11-14T04:58:43.156Z,97.90
2018-11-14T04:59:43.123Z,98.30
2018-11-14T05:00:43.089Z,93.00
2018-11-14T05:01:43.059Z,94.30
2018-11-14T05:02:43.078Z,99.90
2018-11-14T05:03:42.993Z,108.60
2018-11-14T05:04:42.958Z,95.90
2018-11-14T05:05:42.925Z,95.90
2018-11-14T05:06:42.891Z,97.80
2018-11-14T05:07:42.860Z,98.60
2018-11-14T05:08:42.825Z,98.20
2018-11-14T05:09:42.794Z,111.80
2018-11-14T05:10:42.761Z,101.90
2018-11-14T05:11:42.729Z,93.50
2018-11-14T05:12:42.748Z,103.50
2018-11-14T05:13:42.662Z,103.20
2018-11-14T05:14:42.630Z,111.30
2018-11-14T05:15:42.597Z,102.80
2018-11-14T05:16:42.563Z,113.30
2018-11-14T05:17:42.533Z,106.70
2018-11-14T05:18:42.498Z,109.40
2018-11-14T05:19:42.465Z,116.80
2018-11-14T05:20:42.431Z,112.60
2018-11-14T05:21:42.403Z,106.40
2018-11-14T05:22:42.368Z,118.40
2018-11-14T05:23:42.333Z,108.20
2018-11-14T05:24:42.358Z,104.90
2018-11-14T05:25:42.267Z,114.20
2018-11-14T05:26:42.236Z,113.10
2018-11-14T05:27:42.200Z,122.10
2018-11-14T05:28:42.169Z,117.10
2018-11-14T05:29:42.136Z,124.20
2018-11-14T05:30:42.103Z,118.90
2018-11-14T05:31:42.079Z,110.50
2018-11-14T05:32:42.035Z,119.60
2018-11-14T05:33:42.005Z,115.20
2018-11-14T05:34:41.973Z,125.10
2018-11-14T05:35:41.937Z,120.20
2018-11-14T05:36:41.905Z,114.10
2018-11-14T05:37:41.871Z,118.00
2018-11-14T05:38:41.838Z,117.20
2018-11-14T05:39:41.871Z,125.80
2018-11-14T05:40:41.774Z,147.50
2018-11-14T05:41:41.739Z,124.00
2018-11-14T05:42:41.707Z,126.60
2018-11-14T05:43:41.674Z,126.30
2018-11-14T05:44:41.641Z,118.80
2018-11-14T05:45:41.657Z,122.70
2018-11-14T05:46:41.576Z,128.10
2018-11-14T05:47:41.546Z,125.40
2018-11-14T05:48:41.510Z,130.20
2018-11-14T05:49:41.476Z,118.90
2018-11-14T05:50:41.445Z,123.90
2018-11-14T05:51:41.412Z,121.30
2018-11-14T05:52:41.378Z,116.90
2018-11-14T05:53:41.345Z,117.40
2018-11-14T05:54:41.316Z,122.70
2018-11-14T05:55:41.281Z,125.20
2018-11-14T05:56:41.247Z,130.40
2018-11-14T05:57:41.214Z,132.70
2018-11-14T05:58:41.181Z,121.50
2018-11-14T05:59:41.153Z,124.80
2018-11-14T06:00:41.116Z,126.70
2018-11-14T06:01:41.085Z,133.30
2018-11-14T06:02:41.052Z,123.90
2018-11-14T06:03:41.022Z,127.50
2018-11-14T06:04:40.986Z,125.00
2018-11-14T06:05:40.953Z,120.00
2018-11-14T06:06:40.920Z,129.30
2018-11-14T06:07:40.919Z,132.90
2018-11-14T06:08:40.855Z,133.20
2018-11-14T06:09:40.823Z,129.30
2018-11-14T06:10:40.797Z,126.50
2018-11-14T06:11:40.760Z,132.30
2018-11-14T06:12:40.726Z,136.80
2018-11-14T06:13:40.695Z,137.70
2018-11-14T06:14:40.662Z,135.50
2018-11-14T06:15:40.629Z,143.70
2018-11-14T06:16:40.596Z,140.30
2018-11-14T06:17:40.565Z,145.80
2018-11-14T06:18:40.534Z,139.40
2018-11-14T06:19:40.500Z,143.60
2018-11-14T06:20:40.467Z,147.30
2018-11-14T06:21:40.456Z,151.30
2018-11-14T06:22:40.402Z,147.00
2018-11-14T06:23:40.570Z,142.00
2018-11-14T06:24:40.339Z,144.80
2018-11-14T06:25:40.307Z,143.80
2018-11-14T06:26:40.281Z,147.10
2018-11-14T06:27:40.244Z,152.90
2018-11-14T06:28:40.213Z,150.50
2018-11-14T06:29:40.224Z,155.30
2018-11-14T06:30:40.149Z,166.00
2018-11-14T06:31:40.115Z,178.00
2018-11-14T06:32:40.082Z,158.90
2018-11-14T06:33:40.050Z,167.30
2018-11-14T06:34:40.020Z,174.70
2018-11-14T06:35:39.987Z,182.80
2018-11-14T06:36:39.956Z,171.10
2018-11-14T06:37:39.923Z,163.10
2018-11-14T06:38:39.891Z,170.40
2018-11-14T06:39:39.858Z,179.00
2018-11-14T06:40:39.825Z,186.90
2018-11-14T06:41:39.889Z,180.10
2018-11-14T06:42:39.766Z,182.00
2018-11-14T06:43:39.732Z,191.60
2018-11-14T06:44:39.699Z,161.00
2018-11-14T06:45:39.668Z,175.70
2018-11-14T06:46:39.636Z,197.80
2018-11-14T06:47:39.606Z,199.40
2018-11-14T06:48:39.571Z,191.70
2018-11-14T06:49:39.541Z,185.00
2018-11-14T06:50:39.509Z,187.50
2018-11-14T06:51:39.478Z,186.90
2018-11-14T06:52:39.445Z,186.90
2018-11-14T06:53:39.413Z,174.80
2018-11-14T06:54:39.382Z,176.90
2018-11-14T06:55:39.350Z,192.60
2018-11-14T06:56:39.318Z,164.60
2018-11-14T06:57:39.286Z,188.40
2018-11-14T06:58:39.265Z,193.60
2018-11-14T06:59:39.240Z,181.50
2018-11-14T07:00:39.191Z,178.40
2018-11-14T07:01:39.160Z,188.00
2018-11-14T07:02:39.128Z,182.50
2018-11-14T07:03:39.095Z,192.40
2018-11-14T07:04:39.065Z,186.90
2018-11-14T07:05:39.095Z,194.00
2018-11-14T07:06:38.999Z,181.90
2018-11-14T07:07:38.969Z,170.70
2018-11-14T07:08:38.937Z,194.60
2018-11-14T07:09:38.905Z,182.30
2018-11-14T07:10:38.873Z,189.00
2018-11-14T07:11:38.845Z,185.60
2018-11-14T07:12:38.809Z,194.60
2018-11-14T07:13:38.777Z,201.20
2018-11-14T07:14:38.747Z,114.80
2018-11-14T07:15:38.714Z,199.80
2018-11-14T07:16:38.686Z,180.80
2018-11-14T07:17:38.656Z,182.90
2018-11-14T07:18:38.620Z,174.10
2018-11-14T07:19:38.587Z,178.10
2018-11-14T07:20:38.556Z,175.10
2018-11-14T07:21:38.524Z,181.80
2018-11-14T07:22:38.496Z,186.90
2018-11-14T07:23:38.471Z,199.80
2018-11-14T07:24:38.495Z,202.30
2018-11-14T07:25:38.395Z,193.30
2018-11-14T07:26:38.368Z,186.00
2018-11-14T07:27:38.334Z,201.90
2018-11-14T07:28:38.303Z,187.60
2018-11-14T07:29:38.270Z,187.20
2018-11-14T07:30:38.237Z,190.10
2018-11-14T07:31:38.208Z,192.80
2018-11-14T07:32:38.175Z,191.60
2018-11-14T07:33:38.144Z,182.20
2018-11-14T07:34:38.112Z,194.60
2018-11-14T07:35:38.082Z,195.50
2018-11-14T07:36:38.048Z,198.10
2018-11-14T07:37:38.061Z,183.70
2018-11-14T07:38:37.985Z,180.60
2018-11-14T07:39:37.955Z,180.60
2018-11-14T07:40:37.928Z,166.80
2018-11-14T07:41:37.891Z,188.30
2018-11-14T07:42:37.860Z,182.20
2018-11-14T07:43:37.899Z,174.50
2018-11-14T07:44:37.796Z,177.70
2018-11-14T07:45:37.765Z,183.50
2018-11-14T07:46:37.737Z,170.70
2018-11-14T07:47:37.704Z,163.90
2018-11-14T07:48:37.673Z,171.70
2018-11-14T07:49:37.640Z,175.40
2018-11-14T07:50:37.609Z,166.40
2018-11-14T07:51:37.578Z,167.20
2018-11-14T07:52:37.546Z,164.40
2018-11-14T07:53:37.515Z,162.40
2018-11-14T07:54:37.513Z,174.00
2018-11-14T07:55:37.453Z,171.20
2018-11-14T07:56:37.422Z,146.90
2018-11-14T07:57:37.389Z,143.20
2018-11-14T07:58:37.359Z,146.00
2018-11-14T07:59:37.327Z,155.70
2018-11-14T08:00:37.295Z,150.10
2018-11-14T08:01:37.265Z,154.70
2018-11-14T08:02:37.233Z,153.60
2018-11-14T08:03:37.203Z,138.90
2018-11-14T08:04:37.170Z,150.20
2018-11-14T08:05:37.139Z,154.20
2018-11-14T08:06:37.107Z,130.50
2018-11-14T08:07:37.100Z,138.00
2018-11-14T08:08:37.045Z,125.80
2018-11-14T08:09:37.015Z,135.50
2018-11-14T08:10:36.983Z,132.40
2018-11-14T08:11:36.954Z,123.50
2018-11-14T08:12:36.925Z,119.70
2018-11-14T08:13:36.891Z,123.70
2018-11-14T08:14:36.861Z,112.80
2018-11-14T08:15:36.830Z,129.90
2018-11-14T08:16:36.797Z,115.90
2018-11-14T08:17:36.766Z,114.10
2018-11-14T08:18:36.789Z,129.90
2018-11-14T08:19:36.706Z,113.90
2018-11-14T08:20:36.680Z,95.40
2018-11-14T08:21:36.643Z,111.20
2018-11-14T08:22:36.612Z,102.20
2018-11-14T08:23:36.582Z,110.90
2018-11-14T08:24:36.550Z,111.40
2018-11-14T08:25:36.519Z,122.60
2018-11-14T08:26:36.487Z,111.30
2018-11-14T08:27:36.456Z,110.60
2018-11-14T08:28:36.424Z,111.10
2018-11-14T08:29:36.396Z,112.80
2018-11-14T08:30:36.438Z,127.00
2018-11-14T08:31:36.332Z,119.10
2018-11-14T08:32:36.301Z,125.90
2018-11-14T08:33:36.270Z,108.00
2018-11-14T08:34:36.239Z,120.20
2018-11-14T08:35:36.210Z,101.70
2018-11-14T08:36:36.179Z,111.00
2018-11-14T08:37:36.147Z,104.80
2018-11-14T08:38:36.117Z,97.10
2018-11-14T08:39:36.088Z,108.70
2018-11-14T08:40:36.054Z,97.70
2018-11-14T08:41:36.025Z,98.90
2018-11-14T08:42:35.994Z,101.20
2018-11-14T08:43:35.964Z,96.10
2018-11-14T08:44:35.933Z,88.00
2018-11-14T08:45:35.902Z,90.50
2018-11-14T08:46:35.871Z,97.10
2018-11-14T08:47:35.841Z,89.90
2018-11-14T08:48:35.810Z,83.90
2018-11-14T08:49:35.779Z,70.70
2018-11-14T08:50:35.749Z,76.80
2018-11-14T08:51:35.720Z,78.10
2018-11-14T08:52:35.688Z,78.30
2018-11-14T08:53:35.655Z,82.80
2018-11-14T08:54:35.627Z,79.00
2018-11-14T08:55:35.648Z,82.30
2018-11-14T08:56:35.567Z,86.40
2018-11-14T08:57:35.536Z,87.90
2018-11-14T08:58:35.504Z,85.20
2018-11-14T08:59:35.475Z,96.40
2018-11-14T09:00:35.443Z,85.90
2018-11-14T09:01:35.412Z,78.40
2018-11-14T09:02:35.382Z,74.30
2018-11-14T09:03:35.351Z,76.50
2018-11-14T09:04:35.322Z,72.60
2018-11-14T09:05:35.294Z,71.60
2018-11-14T09:06:35.261Z,77.40
2018-11-14T09:07:35.231Z,78.90
2018-11-14T09:08:35.200Z,78.90
2018-11-14T09:09:35.169Z,77.50
2018-11-14T09:10:35.141Z,77.90
2018-11-14T09:11:35.109Z,76.40
2018-11-14T09:12:35.112Z,71.20
2018-11-14T09:13:35.048Z,69.60
2018-11-14T09:14:35.092Z,70.60
2018-11-14T09:15:34.987Z,79.10
2018-11-14T09:16:34.956Z,79.50
2018-11-14T09:17:34.925Z,73.80
2018-11-14T09:18:34.924Z,77.00
2018-11-14T09:19:34.866Z,80.80
2018-11-14T09:20:34.833Z,87.30
2018-11-14T09:21:34.802Z,84.80
2018-11-14T09:22:34.773Z,81.40
2018-11-14T09:23:34.743Z,81.90
2018-11-14T09:24:34.712Z,75.90
2018-11-14T09:25:34.682Z,72.50
2018-11-14T09:26:34.651Z,69.20
2018-11-14T09:27:34.622Z,78.50
2018-11-14T09:28:34.593Z,75.60
2018-11-14T09:29:34.559Z,89.60
2018-11-14T09:30:34.529Z,75.10
2018-11-14T09:31:34.500Z,82.20
2018-11-14T09:32:34.468Z,84.10
2018-11-14T09:33:34.438Z,82.30
2018-11-14T09:34:34.471Z,84.00
2018-11-14T09:35:34.379Z,79.30
2018-11-14T09:36:34.349Z,85.00
2018-11-14T09:37:34.319Z,76.50
2018-11-14T09:38:34.287Z,79.30
2018-11-14T09:39:34.259Z,76.30
2018-11-14T09:40:34.235Z,77.30
2018-11-14T09:41:34.289Z,76.70
2018-11-14T09:42:34.168Z,75.90
2018-11-14T09:43:34.137Z,84.50
2018-11-14T09:44:34.114Z,78.20
2018-11-14T09:45:34.076Z,70.20
2018-11-14T09:46:34.046Z,68.10
2018-11-14T09:47:34.017Z,75.80
2018-11-14T09:48:34.041Z,58.10
2018-11-14T09:49:33.956Z,63.70
2018-11-14T09:50:33.927Z,63.10
2018-11-14T09:51:33.896Z,65.40
2018-11-14T09:52:33.865Z,64.30
2018-11-14T09:53:33.845Z,61.60
2018-11-14T09:54:33.806Z,68.30
2018-11-14T09:55:33.777Z,65.90
2018-11-14T09:56:33.771Z,59.30
2018-11-14T09:57:33.714Z,62.70
2018-11-14T09:58:33.686Z,67.60
2018-11-14T09:59:33.656Z,70.80
2018-11-14T10:00:33.644Z,61.70
2018-11-14T10:01:33.602Z,68.70
2018-11-14T10:02:33.566Z,61.10
2018-11-14T10:03:33.577Z,60.40
2018-11-14T10:04:33.505Z,60.40
2018-11-14T10:05:33.485Z,55.90
2018-11-14T10:06:33.445Z,59.10
2018-11-14T10:07:33.416Z,62.00
2018-11-14T10:08:33.386Z,58.20
2018-11-14T10:09:33.362Z,60.00
2018-11-14T10:10:33.325Z,61.60
2018-11-14T10:11:33.298Z,72.80
2018-11-14T10:12:33.309Z,56.60
2018-11-14T10:13:33.236Z,61.80
2018-11-14T10:14:33.249Z,61.30
2018-11-14T10:15:33.189Z,58.00
2018-11-14T10:16:33.145Z,56.10
2018-11-14T10:17:33.117Z,60.20
2018-11-14T10:18:33.138Z,58.40
2018-11-14T10:19:33.057Z,62.40
2018-11-14T10:20:33.073Z,61.60
2018-11-14T10:21:33.058Z,64.80
2018-11-14T10:22:32.967Z,61.30
2018-11-14T10:23:32.939Z,70.30
2018-11-14T10:24:32.918Z,67.00
2018-11-14T10:25:32.879Z,66.10
2018-11-14T10:26:32.850Z,58.70
2018-11-14T10:27:32.819Z,63.60
2018-11-14T10:28:32.789Z,58.50
2018-11-14T10:29:32.761Z,57.60
2018-11-14T10:30:32.738Z,52.90
2018-11-14T10:31:32.724Z,50.70
2018-11-14T10:32:32.679Z,52.60
2018-11-14T10:33:32.643Z,47.00
2018-11-14T10:34:32.611Z,52.90
2018-11-14T10:35:32.584Z,48.10
2018-11-14T10:36:32.552Z,46.80
2018-11-14T10:37:32.523Z,47.10
2018-11-14T10:38:32.500Z,53.50
2018-11-14T10:39:32.466Z,50.80
2018-11-14T10:40:32.435Z,56.00
2018-11-14T10:41:32.405Z,50.60
2018-11-14T10:42:32.376Z,47.40
2018-11-14T10:43:32.345Z,51.40
2018-11-14T10:44:32.317Z,44.30
2018-11-14T10:45:32.287Z,52.90
2018-11-14T10:46:32.259Z,48.20
2018-11-14T10:47:32.229Z,47.60
2018-11-14T10:48:32.200Z,46.00
2018-11-14T10:49:32.168Z,50.90
2018-11-14T10:50:32.140Z,52.90
2018-11-14T10:51:32.120Z,50.10
2018-11-14T10:52:32.082Z,51.10
2018-11-14T10:53:32.055Z,58.80
2018-11-14T10:54:32.025Z,53.90
2018-11-14T10:55:31.993Z,53.70
2018-11-14T10:56:31.962Z,49.50
2018-11-14T10:57:31.933Z,51.80
2018-11-14T10:58:31.974Z,56.00
2018-11-14T10:59:31.876Z,54.70
2018-11-14T11:00:31.845Z,56.60
2018-11-14T11:01:31.816Z,52.10
2018-11-14T11:02:31.787Z,55.10
2018-11-14T11:03:31.759Z,50.50
2018-11-14T11:04:31.729Z,46.70
2018-11-14T11:05:31.697Z,52.30
2018-11-14T11:06:31.672Z,50.50
2018-11-14T11:07:31.641Z,51.20
2018-11-14T11:08:31.692Z,46.50
2018-11-14T11:09:31.581Z,46.90
2018-11-14T11:10:31.552Z,49.80
2018-11-14T11:11:31.524Z,47.50
2018-11-14T11:12:31.492Z,46.00
2018-11-14T11:13:31.463Z,44.10
2018-11-14T11:14:31.434Z,45.50
2018-11-14T11:15:31.404Z,43.60
2018-11-14T11:16:31.399Z,45.40
2018-11-14T11:17:31.348Z,50.70
2018-11-14T11:18:31.315Z,40.80
2018-11-14T11:19:31.288Z,42.80
2018-11-14T11:20:31.255Z,41.60
2018-11-14T11:21:31.228Z,46.20
2018-11-14T11:22:31.198Z,37.60
2018-11-14T11:23:31.222Z,44.00
2018-11-14T11:24:31.139Z,42.90
2018-11-14T11:25:31.109Z,39.20
2018-11-14T11:26:31.079Z,47.10
2018-11-14T11:27:31.052Z,43.70
2018-11-14T11:28:31.021Z,44.30
2018-11-14T11:29:30.992Z,41.60
2018-11-14T11:30:30.987Z,41.20
2018-11-14T11:31:30.935Z,44.70
2018-11-14T11:32:30.906Z,35.10
2018-11-14T11:33:30.876Z,39.40
2018-11-14T11:34:30.846Z,42.70
2018-11-14T11:35:30.817Z,38.10
2018-11-14T11:36:30.785Z,37.50
2018-11-14T11:37:30.760Z,34.00
2018-11-14T11:38:30.729Z,37.50
2018-11-14T11:39:30.700Z,32.50
2018-11-14T11:40:30.671Z,29.00
2018-11-14T11:41:30.640Z,32.70
2018-11-14T11:42:30.612Z,35.30
2018-11-14T11:43:30.586Z,38.70
2018-11-14T11:44:30.647Z,35.80
2018-11-14T11:45:30.524Z,40.90
2018-11-14T11:46:30.495Z,37.70
2018-11-14T11:47:30.466Z,39.20
2018-11-14T11:48:30.436Z,39.50
2018-11-14T11:49:30.406Z,39.20
2018-11-14T11:50:30.376Z,35.90
2018-11-14T11:51:30.349Z,36.70
2018-11-14T11:52:30.318Z,36.60
2018-11-14T11:53:30.288Z,35.90
2018-11-14T11:54:30.262Z,34.90
2018-11-14T11:55:30.233Z,35.70
2018-11-14T11:56:30.200Z,36.50
2018-11-14T11:57:30.224Z,36.50
2018-11-14T11:58:30.143Z,34.00
2018-11-14T11:59:30.127Z,32.20
2018-11-14T12:00:30.294Z,35.80
2018-11-14T12:01:30.058Z,35.40
2018-11-14T12:02:30.026Z,32.40
2018-11-14T12:03:29.996Z,36.60
2018-11-14T12:04:30.160Z,36.60
2018-11-14T12:05:29.937Z,30.50
2018-11-14T12:06:29.938Z,39.30
2018-11-14T12:07:29.884Z,33.90
2018-11-14T12:08:29.851Z,30.00
2018-11-14T12:09:29.823Z,31.10
2018-11-14T12:10:29.829Z,34.80
2018-11-14T12:11:29.767Z,32.10
2018-11-14T12:12:29.737Z,32.80
2018-11-14T12:13:29.712Z,39.50
2018-11-14T12:14:29.680Z,37.30
2018-11-14T12:15:29.654Z,48.80
2018-11-14T12:16:29.620Z,31.30
2018-11-14T12:17:29.633Z,32.30
2018-11-14T12:18:29.565Z,34.30
2018-11-14T12:19:29.542Z,45.30
2018-11-14T12:20:29.507Z,38.40
2018-11-14T12:21:29.479Z,49.10
2018-11-14T12:22:29.448Z,50.10
2018-11-14T12:23:29.469Z,36.10
2018-11-14T12:24:29.391Z,33.80
2018-11-14T12:25:29.363Z,30.70
2018-11-14T12:26:29.335Z,32.90
2018-11-14T12:27:29.312Z,30.30
2018-11-14T12:28:29.275Z,27.80
2018-11-14T12:29:29.247Z,44.90
2018-11-14T12:30:29.321Z,64.20
2018-11-14T12:31:29.190Z,36.70
2018-11-14T12:32:29.163Z,29.00
2018-11-14T12:33:29.132Z,32.20
2018-11-14T12:34:29.131Z,30.30
2018-11-14T12:35:29.077Z,31.10
2018-11-14T12:36:29.047Z,28.70
2018-11-14T12:37:29.019Z,55.60
2018-11-14T12:38:28.992Z,28.80
2018-11-14T12:39:28.961Z,38.70
2018-11-14T12:40:28.932Z,29.30
2018-11-14T12:41:28.907Z,34.80
2018-11-14T12:42:28.876Z,32.70
2018-11-14T12:43:29.048Z,28.80
2018-11-14T12:44:28.818Z,29.10
2018-11-14T12:45:28.832Z,33.00